createdAt,value
2022-08-26T00:01:55.955Z,17.91
2022-08-26T00:04:23.633Z,17.90
2022-08-26T00:06:50.419Z,17.91
2022-08-26T00:09:16.953Z,18.02
2022-08-26T00:11:46.018Z,17.98
2022-08-26T00:14:14.157Z,17.88
2022-08-26T00:16:41.063Z,17.81
2022-08-26T00:19:14.886Z,17.73
2022-08-26T00:21:41.373Z,17.73
2022-08-26T00:24:07.791Z,17.76
2022-08-26T00:26:34.915Z,17.79
2022-08-26T00:29:01.611Z,17.80
2022-08-26T00:31:28.729Z,17.88
2022-08-26T00:33:57.835Z,17.98
2022-08-26T00:36:24.279Z,18.06
2022-08-26T00:38:51.021Z,18.14
2022-08-26T00:41:21.093Z,18.12
2022-08-26T00:43:48.159Z,18.08
2022-08-26T00:46:21.821Z,18.01
2022-08-26T00:48:50.927Z,17.88
2022-08-26T00:51:19.271Z,17.75
2022-08-26T00:53:47.346Z,17.67
2022-08-26T00:56:32.317Z,17.71
2022-08-26T00:58:59.315Z,17.78
2022-08-26T01:01:28.197Z,17.70
2022-08-26T01:03:57.175Z,17.62
2022-08-26T01:06:23.734Z,17.61
2022-08-26T01:08:51.337Z,17.59
2022-08-26T01:11:17.800Z,17.60
2022-08-26T01:13:45.039Z,17.59
2022-08-26T01:16:13.374Z,17.55
2022-08-26T01:18:40.578Z,17.57
2022-08-26T01:21:25.823Z,17.57
2022-08-26T01:23:52.288Z,17.59
2022-08-26T01:26:30.086Z,17.59
2022-08-26T01:28:58.086Z,17.60
2022-08-26T01:31:28.401Z,17.54
2022-08-26T01:34:01.097Z,17.45
2022-08-26T01:36:27.965Z,17.39
2022-08-26T01:38:54.387Z,17.36
2022-08-26T01:41:27.496Z,17.36
2022-08-26T01:43:56.147Z,17.37
2022-08-26T01:46:23.007Z,17.38
2022-08-26T01:48:52.325Z,17.40
2022-08-26T01:51:20.922Z,17.41
2022-08-26T01:53:47.571Z,17.33
2022-08-26T01:56:14.077Z,17.34
2022-08-26T01:58:45.866Z,17.31
2022-08-26T02:01:13.375Z,17.20
2022-08-26T02:03:44.660Z,17.18
2022-08-26T02:06:11.146Z,17.20
2022-08-26T02:08:41.397Z,17.15
2022-08-26T02:11:07.833Z,17.13
2022-08-26T02:13:35.157Z,17.16
2022-08-26T02:16:01.687Z,17.15
2022-08-26T02:18:28.836Z,17.14
2022-08-26T02:20:55.480Z,17.14
2022-08-26T02:23:24.381Z,17.14
2022-08-26T02:25:54.423Z,17.15
2022-08-26T02:28:20.884Z,17.17
2022-08-26T02:30:55.428Z,17.20
2022-08-26T02:33:22.133Z,17.19
2022-08-26T02:35:48.723Z,17.21
2022-08-26T02:38:15.173Z,17.18
2022-08-26T02:40:42.178Z,17.20
2022-08-26T02:43:08.837Z,17.14
2022-08-26T02:45:35.929Z,17.08
2022-08-26T02:48:05.469Z,17.00
2022-08-26T02:50:32.284Z,16.92
2022-08-26T02:52:58.725Z,16.90
2022-08-26T02:55:25.590Z,16.92
2022-08-26T02:57:52.461Z,16.93
2022-08-26T03:00:18.961Z,16.76
2022-08-26T03:02:45.826Z,16.70
2022-08-26T03:05:12.285Z,16.56
2022-08-26T03:07:39.099Z,16.55
2022-08-26T03:10:08.499Z,16.57
2022-08-26T03:12:35.586Z,16.56
2022-08-26T03:15:03.481Z,16.62
2022-08-26T03:17:44.510Z,16.64
2022-08-26T03:20:11.157Z,16.62
2022-08-26T03:22:40.166Z,16.64
2022-08-26T03:25:07.659Z,16.63
2022-08-26T03:27:34.136Z,16.62
2022-08-26T03:30:19.387Z,16.53
2022-08-26T03:32:46.543Z,16.54
2022-08-26T03:35:12.972Z,16.50
2022-08-26T03:37:40.437Z,16.43
2022-08-26T03:40:09.023Z,16.36
2022-08-26T03:42:36.584Z,16.17
2022-08-26T03:45:03.594Z,16.06
2022-08-26T03:47:30.769Z,15.98
2022-08-26T03:49:57.363Z,16.00
2022-08-26T03:52:24.313Z,15.98
2022-08-26T03:54:51.223Z,16.00
2022-08-26T03:57:17.664Z,16.04
2022-08-26T03:59:45.760Z,16.11
2022-08-26T04:02:12.207Z,16.12
2022-08-26T04:04:38.646Z,16.12
2022-08-26T04:07:05.172Z,16.10
2022-08-26T04:09:31.786Z,16.11
2022-08-26T04:12:02.435Z,16.01
2022-08-26T04:14:29.874Z,15.94
2022-08-26T04:16:56.641Z,15.98
2022-08-26T04:19:24.211Z,16.01
2022-08-26T04:21:53.584Z,15.98
2022-08-26T04:24:23.907Z,16.07
2022-08-26T04:26:50.392Z,16.10
2022-08-26T04:29:19.620Z,16.05
2022-08-26T04:31:48.171Z,16.00
2022-08-26T04:34:14.620Z,15.90
2022-08-26T04:36:41.921Z,15.85
2022-08-26T04:39:08.970Z,15.86
2022-08-26T04:41:35.415Z,15.89
2022-08-26T04:44:02.446Z,15.91
2022-08-26T04:46:29.446Z,15.91
2022-08-26T04:48:56.018Z,15.90
2022-08-26T04:51:27.991Z,15.93
2022-08-26T04:53:57.044Z,15.94
2022-08-26T04:56:31.208Z,15.93
2022-08-26T04:58:57.639Z,15.89
2022-08-26T05:01:24.321Z,15.85
2022-08-26T05:03:50.890Z,15.83
2022-08-26T05:06:19.104Z,15.85
2022-08-26T05:08:45.603Z,15.89
2022-08-26T05:11:12.019Z,15.88
2022-08-26T05:13:39.229Z,15.92
2022-08-26T05:16:06.507Z,15.90
2022-08-26T05:18:34.189Z,15.93
2022-08-26T05:21:02.621Z,15.98
2022-08-26T05:23:31.984Z,15.96
2022-08-26T05:25:59.461Z,15.94
2022-08-26T05:28:28.365Z,15.90
2022-08-26T05:30:55.588Z,15.92
2022-08-26T05:33:22.236Z,15.93
2022-08-26T05:35:48.682Z,15.93
2022-08-26T05:38:17.023Z,15.99
2022-08-26T05:40:44.776Z,16.04
2022-08-26T05:43:11.981Z,16.14
2022-08-26T05:45:44.843Z,16.31
2022-08-26T05:48:12.795Z,16.39
2022-08-26T05:50:40.219Z,16.45
2022-08-26T05:53:07.824Z,16.53
2022-08-26T05:55:35.104Z,16.65
2022-08-26T05:58:02.723Z,16.76
2022-08-26T06:00:29.277Z,16.87
2022-08-26T06:02:55.776Z,16.97
2022-08-26T06:05:22.403Z,17.09
2022-08-26T06:08:07.988Z,17.37
2022-08-26T06:10:37.740Z,17.52
2022-08-26T06:13:11.854Z,17.60
2022-08-26T06:15:45.680Z,17.67
2022-08-26T06:18:12.553Z,17.78
2022-08-26T06:20:43.618Z,17.94
2022-08-26T06:23:41.966Z,18.13
2022-08-26T06:26:08.395Z,18.40
2022-08-26T06:28:37.532Z,18.67
2022-08-26T06:31:04.066Z,18.87
2022-08-26T06:33:31.289Z,19.14
2022-08-26T06:35:57.760Z,19.51
2022-08-26T06:38:25.491Z,19.83
2022-08-26T06:40:53.175Z,20.11
2022-08-26T06:43:22.594Z,20.38
2022-08-26T06:45:50.163Z,20.60
2022-08-26T06:48:18.984Z,20.80
2022-08-26T06:50:45.437Z,20.86
2022-08-26T06:53:13.414Z,21.03
2022-08-26T06:55:41.532Z,21.18
2022-08-26T06:58:09.524Z,21.30
2022-08-26T07:00:36.905Z,21.44
2022-08-26T07:03:05.511Z,21.57
2022-08-26T07:05:35.051Z,21.62
2022-08-26T07:08:01.815Z,21.59
2022-08-26T07:10:29.601Z,21.72
2022-08-26T07:12:56.040Z,21.81
2022-08-26T07:15:27.182Z,21.79
2022-08-26T07:17:57.832Z,21.79
2022-08-26T07:20:24.298Z,22.15
2022-08-26T07:22:51.492Z,22.41
2022-08-26T07:25:17.909Z,22.39
2022-08-26T07:27:45.853Z,22.31
2022-08-26T07:30:20.364Z,22.44
2022-08-26T07:32:46.855Z,22.28
2022-08-26T07:35:14.062Z,22.04
2022-08-26T07:37:40.627Z,22.13
2022-08-26T07:40:07.309Z,22.31
2022-08-26T07:42:35.852Z,22.44
2022-08-26T07:45:02.269Z,22.73
2022-08-26T07:47:28.932Z,22.87
2022-08-26T07:49:55.674Z,23.15
2022-08-26T07:52:26.356Z,23.30
2022-08-26T07:54:53.269Z,23.41
2022-08-26T07:57:19.716Z,23.68
2022-08-26T07:59:47.394Z,23.84
2022-08-26T08:02:13.844Z,23.96
2022-08-26T08:04:40.275Z,23.86
2022-08-26T08:07:10.573Z,23.89
2022-08-26T08:09:38.414Z,23.63
2022-08-26T08:12:07.318Z,23.56
2022-08-26T08:14:36.471Z,23.80
2022-08-26T08:17:03.838Z,24.01
2022-08-26T08:19:36.710Z,24.01
2022-08-26T08:22:06.868Z,24.12
2022-08-26T08:24:44.078Z,23.95
2022-08-26T08:27:10.763Z,23.80
2022-08-26T08:29:37.482Z,23.83
2022-08-26T08:32:04.992Z,23.83
2022-08-26T08:34:31.549Z,23.98
2022-08-26T08:36:58.391Z,23.99
2022-08-26T08:39:25.303Z,24.19
2022-08-26T08:41:54.914Z,24.09
2022-08-26T08:46:51.033Z,24.68
2022-08-26T08:49:17.614Z,24.54
2022-08-26T08:51:50.843Z,24.76
2022-08-26T08:54:17.549Z,25.09
2022-08-26T08:56:55.011Z,25.33
2022-08-26T08:59:26.005Z,25.57
2022-08-26T09:01:54.018Z,25.85
2022-08-26T09:04:30.331Z,26.07
2022-08-26T09:09:29.692Z,26.36
2022-08-26T09:11:56.476Z,26.15
2022-08-26T09:14:22.939Z,26.26
2022-08-26T09:17:12.721Z,26.25
2022-08-26T09:20:02.202Z,26.52
2022-08-26T09:22:32.032Z,26.73
2022-08-26T09:24:58.546Z,27.00
2022-08-26T09:27:45.791Z,27.28
2022-08-26T09:30:20.097Z,27.74
2022-08-26T09:32:57.331Z,27.96
2022-08-26T09:35:28.853Z,28.00
2022-08-26T09:37:55.563Z,28.10
2022-08-26T09:40:27.786Z,28.49
2022-08-26T09:43:28.560Z,29.07
2022-08-26T09:45:59.598Z,30.14
2022-08-26T09:48:32.339Z,30.63
2022-08-26T09:51:03.744Z,30.94
2022-08-26T09:53:32.271Z,31.37
2022-08-26T09:56:12.969Z,32.27
2022-08-26T09:58:40.462Z,33.06
2022-08-26T10:01:09.549Z,34.12
2022-08-26T10:03:37.132Z,34.18
2022-08-26T10:06:07.538Z,34.22
2022-08-26T10:08:37.818Z,34.65
2022-08-26T10:11:07.312Z,34.82
2022-08-26T10:13:35.027Z,35.27
2022-08-26T10:16:05.654Z,35.51
2022-08-26T10:18:39.977Z,35.05
2022-08-26T10:21:19.934Z,33.13
2022-08-26T10:23:51.283Z,31.21
2022-08-26T10:26:20.907Z,31.36
2022-08-26T10:29:07.594Z,31.51
2022-08-26T10:31:47.859Z,32.49
2022-08-26T10:34:18.213Z,33.42
2022-08-26T10:37:13.504Z,34.31
2022-08-26T10:39:43.191Z,34.02
2022-08-26T10:42:10.939Z,33.65
2022-08-26T10:44:37.876Z,34.83
2022-08-26T10:47:18.719Z,35.73
2022-08-26T10:49:45.948Z,36.64
2022-08-26T10:52:21.518Z,36.07
2022-08-26T10:54:50.832Z,36.79
2022-08-26T10:57:21.642Z,37.62
2022-08-26T10:59:48.326Z,36.26
2022-08-26T11:02:22.779Z,34.32
2022-08-26T11:04:53.357Z,32.78
2022-08-26T11:07:29.967Z,32.68
2022-08-26T11:09:58.953Z,34.28
2022-08-26T11:12:34.476Z,35.27
2022-08-26T11:15:02.535Z,36.55
2022-08-26T11:17:44.069Z,37.48
2022-08-26T11:20:23.776Z,36.31
2022-08-26T11:22:51.346Z,36.80
2022-08-26T11:25:18.484Z,38.43
2022-08-26T11:27:45.076Z,39.75
2022-08-26T11:30:15.809Z,39.11
2022-08-26T11:32:46.764Z,40.14
2022-08-26T11:35:19.189Z,39.94
2022-08-26T11:37:46.676Z,38.89
2022-08-26T11:40:14.366Z,37.69
2022-08-26T11:42:42.640Z,37.35
2022-08-26T11:45:23.446Z,37.91
2022-08-26T11:47:50.069Z,39.33
2022-08-26T11:50:19.613Z,40.38
2022-08-26T11:52:52.973Z,40.91
2022-08-26T11:55:20.109Z,39.87
2022-08-26T11:57:51.092Z,39.05
2022-08-26T12:00:22.256Z,38.38
2022-08-26T12:02:49.085Z,38.08
2022-08-26T12:05:17.325Z,37.45
2022-08-26T12:07:44.254Z,38.43
2022-08-26T12:10:11.241Z,39.18
2022-08-26T12:12:40.249Z,39.81
2022-08-26T12:15:06.862Z,39.93
2022-08-26T12:17:33.328Z,41.03
2022-08-26T12:19:59.791Z,41.71
2022-08-26T12:22:27.244Z,40.67
2022-08-26T12:25:07.388Z,40.27
2022-08-26T12:27:39.893Z,38.50
2022-08-26T12:30:12.399Z,38.43
2022-08-26T12:32:57.915Z,38.13
2022-08-26T12:35:24.843Z,39.08
2022-08-26T12:37:51.982Z,40.12
2022-08-26T12:40:30.870Z,38.82
2022-08-26T12:43:00.266Z,37.48
2022-08-26T12:45:28.553Z,35.22
2022-08-26T12:47:56.233Z,36.88
2022-08-26T12:50:27.048Z,36.48
2022-08-26T12:52:57.373Z,37.83
2022-08-26T12:55:23.780Z,37.88
2022-08-26T12:57:50.308Z,36.87
2022-08-26T13:00:28.464Z,36.26
2022-08-26T13:02:55.130Z,33.71
2022-08-26T13:05:33.238Z,34.06
2022-08-26T13:08:10.567Z,36.11
2022-08-26T13:10:37.765Z,38.18
2022-08-26T13:13:04.239Z,38.14
2022-08-26T13:15:30.735Z,35.41
2022-08-26T13:17:58.485Z,34.06
2022-08-26T13:20:25.008Z,32.96
2022-08-26T13:22:53.807Z,31.18
2022-08-26T13:25:25.429Z,30.59
2022-08-26T13:27:51.866Z,30.04
2022-08-26T13:30:18.313Z,29.52
2022-08-26T13:32:44.745Z,28.92
2022-08-26T13:35:11.503Z,28.17
2022-08-26T13:37:37.909Z,28.03
2022-08-26T13:40:05.554Z,27.81
2022-08-26T13:42:31.997Z,28.02
2022-08-26T13:44:59.731Z,28.01
2022-08-26T13:47:27.154Z,27.40
2022-08-26T13:49:54.483Z,27.54
2022-08-26T13:52:29.150Z,27.61
2022-08-26T13:54:57.316Z,27.46
2022-08-26T13:57:24.702Z,27.23
2022-08-26T13:59:51.732Z,27.56
2022-08-26T14:02:18.159Z,27.77
2022-08-26T14:04:44.614Z,27.61
2022-08-26T14:07:11.033Z,27.67
2022-08-26T14:09:38.501Z,27.80
2022-08-26T14:12:05.059Z,27.38
2022-08-26T14:14:31.494Z,27.62
2022-08-26T14:16:59.482Z,27.61
2022-08-26T14:19:26.372Z,27.47
2022-08-26T14:21:53.924Z,26.82
2022-08-26T14:24:20.355Z,26.56
2022-08-26T14:26:48.486Z,26.52
2022-08-26T14:29:16.763Z,26.41
2022-08-26T14:31:43.545Z,26.60
2022-08-26T14:34:10.053Z,26.50
2022-08-26T14:36:36.629Z,26.44
2022-08-26T14:39:04.876Z,25.70
2022-08-26T14:41:31.667Z,25.76
2022-08-26T14:44:05.599Z,25.83
2022-08-26T14:46:33.440Z,25.77
2022-08-26T14:49:01.507Z,25.52
2022-08-26T14:51:28.531Z,25.27
2022-08-26T14:54:13.240Z,24.98
2022-08-26T14:56:46.192Z,24.69
2022-08-26T14:59:17.542Z,24.23
2022-08-26T15:01:44.151Z,24.13
2022-08-26T15:04:10.694Z,23.84
2022-08-26T15:06:37.163Z,24.01
2022-08-26T15:09:03.923Z,24.30
2022-08-26T15:11:30.409Z,24.46
2022-08-26T15:13:57.351Z,24.63
2022-08-26T15:16:24.093Z,24.68
2022-08-26T15:18:51.552Z,24.58
2022-08-26T15:21:19.301Z,24.38
2022-08-26T15:23:47.674Z,24.23
2022-08-26T15:26:14.996Z,24.21
2022-08-26T15:28:41.484Z,24.14
2022-08-26T15:31:08.358Z,24.13
2022-08-26T15:33:35.247Z,24.18
2022-08-26T15:36:02.523Z,24.22
2022-08-26T15:38:30.111Z,24.25
2022-08-26T15:40:58.744Z,24.20
2022-08-26T15:43:29.340Z,24.07
2022-08-26T15:45:56.002Z,24.02
2022-08-26T15:48:22.545Z,23.92
2022-08-26T15:50:50.500Z,23.68
2022-08-26T15:53:17.382Z,23.52
2022-08-26T15:55:43.831Z,23.36
2022-08-26T15:58:10.457Z,23.30
2022-08-26T16:00:37.146Z,23.19
2022-08-26T16:03:03.923Z,23.04
2022-08-26T16:05:30.363Z,22.79
2022-08-26T16:07:56.832Z,22.81
2022-08-26T16:10:23.264Z,22.75
2022-08-26T16:12:49.800Z,22.77
2022-08-26T16:15:16.781Z,22.69
2022-08-26T16:17:43.238Z,22.64
2022-08-26T16:20:09.739Z,22.61
2022-08-26T16:22:36.278Z,22.55
2022-08-26T16:25:02.786Z,22.50
2022-08-26T16:27:29.280Z,22.46
2022-08-26T16:29:55.840Z,22.39
2022-08-26T16:32:22.304Z,22.21
2022-08-26T16:34:56.654Z,21.95
2022-08-26T16:37:23.533Z,21.98
2022-08-26T16:39:50.010Z,21.97
2022-08-26T16:42:16.498Z,21.73
2022-08-26T16:44:45.834Z,21.65
2022-08-26T16:47:13.041Z,21.70
2022-08-26T16:49:39.630Z,21.75
2022-08-26T16:52:06.403Z,21.81
2022-08-26T16:54:32.857Z,21.82
2022-08-26T16:56:59.344Z,21.79
2022-08-26T16:59:25.921Z,21.74
2022-08-26T17:01:52.418Z,21.55
2022-08-26T17:04:19.750Z,21.41
2022-08-26T17:06:46.380Z,21.22
2022-08-26T17:09:12.806Z,21.22
2022-08-26T17:11:39.254Z,21.19
2022-08-26T17:14:05.732Z,21.20
2022-08-26T17:16:32.416Z,21.26
2022-08-26T17:18:59.247Z,21.29
2022-08-26T17:21:26.293Z,21.30
2022-08-26T17:23:52.951Z,21.24
2022-08-26T17:26:19.387Z,21.22
2022-08-26T17:28:45.819Z,21.17
2022-08-26T17:31:13.049Z,21.17
2022-08-26T17:33:39.699Z,20.99
2022-08-26T17:36:07.048Z,20.78
2022-08-26T17:38:33.741Z,20.67
2022-08-26T17:41:00.207Z,20.76
2022-08-26T17:43:26.901Z,20.84
2022-08-26T17:46:07.223Z,20.89
2022-08-26T17:48:34.209Z,20.88
2022-08-26T17:51:00.690Z,20.85
2022-08-26T17:53:27.131Z,20.85
2022-08-26T17:55:53.618Z,20.87
2022-08-26T17:58:23.222Z,20.92
2022-08-26T18:00:51.318Z,20.91
2022-08-26T18:03:19.026Z,20.88
2022-08-26T18:05:49.397Z,20.89
2022-08-26T18:08:15.868Z,20.79
2022-08-26T18:10:42.989Z,20.56
2022-08-26T18:13:09.578Z,20.57
2022-08-26T18:15:38.768Z,20.54
2022-08-26T18:18:05.452Z,20.51
2022-08-26T18:20:31.893Z,20.49
2022-08-26T18:22:58.325Z,20.41
2022-08-26T18:25:24.789Z,20.17
2022-08-26T18:27:51.633Z,20.22
2022-08-26T18:30:20.662Z,20.29
2022-08-26T18:32:50.491Z,20.33
2022-08-26T18:35:16.934Z,20.35
2022-08-26T18:37:44.390Z,20.27
2022-08-26T18:40:11.813Z,20.23
2022-08-26T18:42:38.487Z,20.25
2022-08-26T18:45:05.762Z,20.25
2022-08-26T18:47:32.299Z,20.13
2022-08-26T18:49:58.774Z,20.12
2022-08-26T18:52:25.319Z,20.15
2022-08-26T18:54:51.819Z,20.02
2022-08-26T18:57:18.271Z,19.93
2022-08-26T18:59:44.713Z,19.83
2022-08-26T19:02:11.245Z,19.76
2022-08-26T19:04:40.941Z,19.84
2022-08-26T19:07:07.636Z,19.90
2022-08-26T19:09:34.321Z,19.98
2022-08-26T19:12:03.086Z,19.92
2022-08-26T19:14:29.772Z,19.84
2022-08-26T19:16:56.285Z,19.82
2022-08-26T19:19:25.686Z,19.76
2022-08-26T19:21:52.598Z,19.61
2022-08-26T19:24:19.094Z,19.46
2022-08-26T19:26:47.619Z,19.33
2022-08-26T19:29:15.243Z,19.31
2022-08-26T19:31:42.320Z,19.24
2022-08-26T19:34:10.564Z,19.27
2022-08-26T19:36:37.767Z,19.33
2022-08-26T19:39:05.356Z,19.36
2022-08-26T19:41:37.479Z,19.42
2022-08-26T19:44:05.812Z,19.47
2022-08-26T19:46:32.323Z,19.49
2022-08-26T19:48:58.896Z,19.52
2022-08-26T19:51:26.476Z,19.61
2022-08-26T19:53:53.341Z,19.65
2022-08-26T19:56:20.342Z,19.71
2022-08-26T19:58:46.814Z,19.71
2022-08-26T20:01:13.662Z,19.71
2022-08-26T20:03:40.679Z,19.63
2022-08-26T20:06:07.925Z,19.57
2022-08-26T20:08:34.935Z,19.56
2022-08-26T20:11:05.862Z,19.62
2022-08-26T20:13:32.702Z,19.52
2022-08-26T20:15:59.171Z,19.52
2022-08-26T20:18:44.297Z,19.48
2022-08-26T20:21:29.449Z,19.43
2022-08-26T20:23:58.346Z,19.32
2022-08-26T20:26:26.398Z,19.30
2022-08-26T20:28:52.837Z,19.31
2022-08-26T20:31:19.570Z,19.30
2022-08-26T20:33:46.771Z,19.34
2022-08-26T20:36:13.557Z,19.31
2022-08-26T20:38:39.990Z,19.32
2022-08-26T20:41:06.433Z,19.34
2022-08-26T20:43:32.847Z,19.41
2022-08-26T20:46:00.172Z,19.41
2022-08-26T20:48:26.675Z,19.39
2022-08-26T20:50:56.217Z,19.31
2022-08-26T20:53:22.644Z,19.30
2022-08-26T20:55:53.748Z,19.29
2022-08-26T20:58:20.719Z,19.11
2022-08-26T21:00:47.243Z,18.97
2022-08-26T21:03:14.343Z,18.98
2022-08-26T21:05:40.820Z,19.02
2022-08-26T21:08:07.244Z,19.05
2022-08-26T21:10:33.880Z,19.08
2022-08-26T21:13:00.486Z,18.96
2022-08-26T21:15:26.945Z,18.99
2022-08-26T21:17:53.371Z,18.95
2022-08-26T21:20:19.915Z,18.91
2022-08-26T21:22:46.566Z,18.79
2022-08-26T21:25:13.030Z,18.75
2022-08-26T21:27:39.494Z,18.75
2022-08-26T21:30:06.165Z,18.85
2022-08-26T21:32:32.596Z,18.85
2022-08-26T21:34:59.739Z,18.83
2022-08-26T21:37:27.143Z,18.79
2022-08-26T21:39:54.467Z,18.72
2022-08-26T21:42:20.958Z,18.63
2022-08-26T21:44:52.799Z,18.57
2022-08-26T21:47:22.585Z,18.66
2022-08-26T21:49:49.103Z,18.59
2022-08-26T21:52:15.524Z,18.54
2022-08-26T21:54:41.989Z,18.48
2022-08-26T21:57:15.967Z,18.53
2022-08-26T21:59:42.474Z,18.45
2022-08-26T22:02:08.982Z,18.45
2022-08-26T22:04:35.811Z,18.48
2022-08-26T22:07:02.252Z,18.46
2022-08-26T22:09:30.849Z,18.44
2022-08-26T22:11:57.999Z,18.50
2022-08-26T22:14:30.778Z,18.52
2022-08-26T22:16:57.974Z,18.45
2022-08-26T22:19:24.549Z,18.29
2022-08-26T22:21:52.919Z,18.28
2022-08-26T22:24:19.903Z,18.33
2022-08-26T22:26:46.789Z,18.18
2022-08-26T22:29:13.286Z,18.06
2022-08-26T22:31:40.226Z,18.02
2022-08-26T22:34:07.901Z,17.97
2022-08-26T22:36:34.386Z,17.88
2022-08-26T22:39:01.034Z,17.90
2022-08-26T22:41:27.809Z,17.82
2022-08-26T22:43:54.481Z,17.86
2022-08-26T22:46:25.118Z,17.96
2022-08-26T22:48:53.875Z,17.90
2022-08-26T22:51:20.782Z,17.87
2022-08-26T22:53:47.354Z,17.93
2022-08-26T22:56:14.207Z,17.89
2022-08-26T22:58:40.967Z,17.91
2022-08-26T23:01:07.727Z,17.76
2022-08-26T23:03:34.265Z,17.64
2022-08-26T23:06:01.001Z,17.67
2022-08-26T23:08:27.548Z,17.60
2022-08-26T23:10:54.017Z,17.57
2022-08-26T23:13:20.472Z,17.61
2022-08-26T23:15:46.944Z,17.63
2022-08-26T23:18:14.115Z,17.59
2022-08-26T23:20:40.773Z,17.66
2022-08-26T23:23:07.363Z,17.68
2022-08-26T23:25:33.887Z,17.65
2022-08-26T23:28:00.572Z,17.64
2022-08-26T23:30:27.967Z,17.68
2022-08-26T23:32:54.416Z,17.78
2022-08-26T23:35:21.570Z,17.78
2022-08-26T23:37:50.135Z,17.73
2022-08-26T23:40:27.641Z,17.71
2022-08-26T23:42:54.869Z,17.61
2022-08-26T23:45:21.955Z,17.64
2022-08-26T23:47:50.507Z,17.71
2022-08-26T23:50:17.971Z,17.81
2022-08-26T23:53:05.680Z,17.80
2022-08-26T23:55:39.058Z,17.78
2022-08-26T23:58:05.729Z,17.82
